sensor_id;sensor_type;location;lat;lon;timestamp;noise_LAeq;noise_LA_min;noise_LA_max;noise_LA01;noise_LA95
67300;Laerm;57658;51.436;5.980;2023-07-29T00:00:06;49.98;31.40;64.15;;
67300;Laerm;57658;51.436;5.980;2023-07-29T00:00:17;43.90;31.72;61.31;;
67300;Laerm;57658;51.436;5.980;2023-07-29T00:00:27;34.05;31.44;43.19;;
67300;Laerm;57658;51.436;5.980;2023-07-29T00:00:38;35.04;31.73;42.00;;
67300;Laerm;57658;51.436;5.980;2023-07-29T00:00:48;33.53;30.93;38.21;;
67300;Laerm;57658;51.436;5.980;2023-07-29T00:00:58;33.05;31.25;36.17;;
67300;Laerm;57658;51.436;5.980;2023-07-29T00:01:10;33.20;31.82;34.96;;
67300;Laerm;57658;51.436;5.980;2023-07-29T00:01:20;32.69;31.15;34.18;;
67300;Laerm;57658;51.436;5.980;2023-07-29T00:01:31;32.45;31.07;34.43;;
67300;Laerm;57658;51.436;5.980;2023-07-29T00:01:41;32.60;31.44;34.17;;
67300;Laerm;57658;51.436;5.980;2023-07-29T00:01:51;33.38;31.40;37.24;;
67300;Laerm;57658;51.436;5.980;2023-07-29T00:02:03;33.66;31.69;35.57;;
67300;Laerm;57658;51.436;5.980;2023-07-29T00:02:14;33.22;30.99;35.50;;
67300;Laerm;57658;51.436;5.980;2023-07-29T00:02:25;32.69;31.35;35.35;;
67300;Laerm;57658;51.436;5.980;2023-07-29T00:02:35;35.96;31.97;41.67;;
67300;Laerm;57658;51.436;5.980;2023-07-29T00:02:45;33.31;31.53;36.45;;
67300;Laerm;57658;51.436;5.980;2023-07-29T00:02:56;31.93;30.68;33.28;;
67300;Laerm;57658;51.436;5.980;2023-07-29T00:03:06;31.96;30.97;33.02;;
67300;Laerm;57658;51.436;5.980;2023-07-29T00:03:16;32.29;31.16;33.28;;
67300;Laerm;57658;51.436;5.980;2023-07-29T00:03:27;32.29;30.79;33.92;;
67300;Laerm;57658;51.436;5.980;2023-07-29T00:03:39;32.44;31.03;45.21;;
67300;Laerm;57658;51.436;5.980;2023-07-29T00:03:50;32.11;30.73;33.54;;
67300;Laerm;57658;51.436;5.980;2023-07-29T00:04:01;31.81;30.81;32.91;;
67300;Laerm;57658;51.436;5.980;2023-07-29T00:04:11;32.00;30.76;33.11;;
67300;Laerm;57658;51.436;5.980;2023-07-29T00:04:22;32.22;31.19;34.02;;
67300;Laerm;57658;51.436;5.980;2023-07-29T00:04:32;32.16;30.81;37.89;;
67300;Laerm;57658;51.436;5.980;2023-07-29T00:04:42;32.03;30.70;33.42;;
67300;Laerm;57658;51.436;5.980;2023-07-29T00:04:52;36.24;31.38;49.02;;
67300;Laerm;57658;51.436;5.980;2023-07-29T00:05:03;33.50;31.27;36.39;;
67300;Laerm;57658;51.436;5.980;2023-07-29T00:05:13;32.19;31.06;34.37;;
67300;Laerm;57658;51.436;5.980;2023-07-29T00:05:23;32.30;30.65;35.02;;
67300;Laerm;57658;51.436;5.980;2023-07-29T00:05:34;32.22;30.98;33.75;;
67300;Laerm;57658;51.436;5.980;2023-07-29T00:05:44;32.34;31.03;33.38;;
67300;Laerm;57658;51.436;5.980;2023-07-29T00:05:54;32.56;31.33;34.33;;
67300;Laerm;57658;51.436;5.980;2023-07-29T00:06:04;32.63;30.99;34.00;;
67300;Laerm;57658;51.436;5.980;2023-07-29T00:06:15;32.54;31.00;34.08;;
67300;Laerm;57658;51.436;5.980;2023-07-29T00:06:25;32.76;31.43;34.39;;
67300;Laerm;57658;51.436;5.980;2023-07-29T00:06:35;33.69;32.28;35.49;;
67300;Laerm;57658;51.436;5.980;2023-07-29T00:06:46;34.70;32.81;36.85;;
67300;Laerm;57658;51.436;5.980;2023-07-29T00:06:56;70.40;34.21;78.32;;
67300;Laerm;57658;51.436;5.980;2023-07-29T00:07:06;71.57;55.80;78.08;;
67300;Laerm;57658;51.436;5.980;2023-07-29T00:07:16;64.78;53.33;74.15;;
67300;Laerm;57658;51.436;5.980;2023-07-29T00:07:27;63.53;53.65;75.96;;
67300;Laerm;57658;51.436;5.980;2023-07-29T00:07:37;64.31;54.75;74.48;;
67300;Laerm;57658;51.436;5.980;2023-07-29T00:07:47;82.89;63.38;86.84;;
67300;Laerm;57658;51.436;5.980;2023-07-29T00:07:57;86.11;79.33;95.19;;
67300;Laerm;57658;51.436;5.980;2023-07-29T00:08:08;80.93;57.68;87.11;;
67300;Laerm;57658;51.436;5.980;2023-07-29T00:08:18;58.98;42.37;71.74;;
67300;Laerm;57658;51.436;5.980;2023-07-29T00:08:28;39.47;35.00;45.25;;
67300;Laerm;57658;51.436;5.980;2023-07-29T00:08:38;34.65;32.13;39.26;;
67300;Laerm;57658;51.436;5.980;2023-07-29T00:08:49;32.59;31.08;33.84;;
67300;Laerm;57658;51.436;5.980;2023-07-29T00:08:59;32.15;30.93;33.07;;
67300;Laerm;57658;51.436;5.980;2023-07-29T00:09:09;32.00;30.93;33.40;;
67300;Laerm;57658;51.436;5.980;2023-07-29T00:09:20;32.22;31.14;33.15;;
67300;Laerm;57658;51.436;5.980;2023-07-29T00:09:30;32.10;30.80;33.41;;
67300;Laerm;57658;51.436;5.980;2023-07-29T00:09:40;32.28;31.31;33.29;;
67300;Laerm;57658;51.436;5.980;2023-07-29T00:09:50;31.98;30.89;38.22;;
67300;Laerm;57658;51.436;5.980;2023-07-29T00:10:01;32.10;30.81;33.47;;
67300;Laerm;57658;51.436;5.980;2023-07-29T00:10:11;32.15;31.08;33.37;;
67300;Laerm;57658;51.436;5.980;2023-07-29T00:10:22;32.08;31.01;33.40;;
67300;Laerm;57658;51.436;5.980;2023-07-29T00:10:36;32.09;30.88;33.36;;
67300;Laerm;57658;51.436;5.980;2023-07-29T00:10:47;32.14;30.83;38.42;;
67300;Laerm;57658;51.436;5.980;2023-07-29T00:10:57;31.60;30.29;32.83;;
67300;Laerm;57658;51.436;5.980;2023-07-29T00:11:07;31.75;30.50;32.98;;
67300;Laerm;57658;51.436;5.980;2023-07-29T00:11:18;31.89;30.68;33.69;;
67300;Laerm;57658;51.436;5.980;2023-07-29T00:11:28;32.34;30.69;33.94;;
67300;Laerm;57658;51.436;5.980;2023-07-29T00:11:38;33.49;31.20;36.46;;
67300;Laerm;57658;51.436;5.980;2023-07-29T00:11:48;34.08;31.04;38.90;;
67300;Laerm;57658;51.436;5.980;2023-07-29T00:11:59;33.50;31.22;36.44;;
67300;Laerm;57658;51.436;5.980;2023-07-29T00:12:09;33.66;31.39;38.39;;
67300;Laerm;57658;51.436;5.980;2023-07-29T00:12:19;33.04;31.24;39.21;;
67300;Laerm;57658;51.436;5.980;2023-07-29T00:12:30;32.72;31.32;35.09;;
67300;Laerm;57658;51.436;5.980;2023-07-29T00:12:40;32.68;31.05;35.05;;
67300;Laerm;57658;51.436;5.980;2023-07-29T00:12:50;32.66;31.19;36.88;;
67300;Laerm;57658;51.436;5.980;2023-07-29T00:13:01;32.44;31.16;34.37;;
67300;Laerm;57658;51.436;5.980;2023-07-29T00:13:11;32.30;30.76;34.38;;
67300;Laerm;57658;51.436;5.980;2023-07-29T00:13:22;32.59;31.41;34.09;;
67300;Laerm;57658;51.436;5.980;2023-07-29T00:13:32;31.96;30.41;33.16;;
67300;Laerm;57658;51.436;5.980;2023-07-29T00:13:42;32.08;30.64;34.14;;
67300;Laerm;57658;51.436;5.980;2023-07-29T00:13:52;31.96;30.66;33.33;;
67300;Laerm;57658;51.436;5.980;2023-07-29T00:14:03;32.33;30.79;33.83;;
67300;Laerm;57658;51.436;5.980;2023-07-29T00:14:13;34.90;31.23;37.64;;
67300;Laerm;57658;51.436;5.980;2023-07-29T00:14:23;37.64;34.29;40.12;;
67300;Laerm;57658;51.436;5.980;2023-07-29T00:14:34;41.52;36.86;46.31;;
67300;Laerm;57658;51.436;5.980;2023-07-29T00:14:44;41.86;36.04;48.15;;
67300;Laerm;57658;51.436;5.980;2023-07-29T00:14:54;47.41;43.45;59.67;;
67300;Laerm;57658;51.436;5.980;2023-07-29T00:15:05;56.83;36.58;64.81;;
67300;Laerm;57658;51.436;5.980;2023-07-29T00:15:15;54.77;39.60;63.94;;
67300;Laerm;57658;51.436;5.980;2023-07-29T00:15:26;39.19;32.86;46.11;;
67300;Laerm;57658;51.436;5.980;2023-07-29T00:15:36;32.87;31.20;34.87;;
67300;Laerm;57658;51.436;5.980;2023-07-29T00:15:46;32.21;30.95;33.85;;
67300;Laerm;57658;51.436;5.980;2023-07-29T00:15:56;31.48;30.35;33.11;;
67300;Laerm;57658;51.436;5.980;2023-07-29T00:16:07;31.73;30.70;32.71;;
67300;Laerm;57658;51.436;5.980;2023-07-29T00:16:17;31.86;30.62;33.13;;
67300;Laerm;57658;51.436;5.980;2023-07-29T00:16:27;31.91;30.82;33.29;;
67300;Laerm;57658;51.436;5.980;2023-07-29T00:16:38;32.33;30.75;34.95;;
67300;Laerm;57658;51.436;5.980;2023-07-29T00:16:48;45.37;32.70;59.12;;
67300;Laerm;57658;51.436;5.980;2023-07-29T00:16:58;36.54;31.01;45.33;;
67300;Laerm;57658;51.436;5.980;2023-07-29T00:17:09;31.86;30.32;33.23;;
67300;Laerm;57658;51.436;5.980;2023-07-29T00:17:19;31.94;30.89;35.48;;
67300;Laerm;57658;51.436;5.980;2023-07-29T00:17:30;31.97;30.37;33.32;;
67300;Laerm;57658;51.436;5.980;2023-07-29T00:17:40;31.59;30.44;32.69;;
67300;Laerm;57658;51.436;5.980;2023-07-29T00:17:50;31.43;30.25;32.35;;
67300;Laerm;57658;51.436;5.980;2023-07-29T00:18:01;31.72;30.58;32.78;;
67300;Laerm;57658;51.436;5.980;2023-07-29T00:18:11;31.83;30.38;33.01;;
67300;Laerm;57658;51.436;5.980;2023-07-29T00:18:22;31.43;30.31;32.49;;
67300;Laerm;57658;51.436;5.980;2023-07-29T00:18:33;31.50;30.08;32.72;;
67300;Laerm;57658;51.436;5.980;2023-07-29T00:18:43;32.16;30.70;33.36;;
67300;Laerm;57658;51.436;5.980;2023-07-29T00:18:54;31.83;30.59;32.91;;
67300;Laerm;57658;51.436;5.980;2023-07-29T00:19:04;32.10;30.82;33.33;;
67300;Laerm;57658;51.436;5.980;2023-07-29T00:19:15;32.48;31.15;33.65;;
67300;Laerm;57658;51.436;5.980;2023-07-29T00:19:25;33.75;31.40;37.92;;
67300;Laerm;57658;51.436;5.980;2023-07-29T00:19:35;40.17;34.71;48.00;;
67300;Laerm;57658;51.436;5.980;2023-07-29T00:19:46;54.65;44.80;61.31;;
67300;Laerm;57658;51.436;5.980;2023-07-29T00:19:56;43.38;38.20;47.37;;
67300;Laerm;57658;51.436;5.980;2023-07-29T00:20:06;35.82;32.35;40.35;;
67300;Laerm;57658;51.436;5.980;2023-07-29T00:20:17;35.40;31.87;38.24;;
67300;Laerm;57658;51.436;5.980;2023-07-29T00:20:27;72.63;34.88;79.36;;
67300;Laerm;57658;51.436;5.980;2023-07-29T00:20:38;69.97;54.29;78.05;;
67300;Laerm;57658;51.436;5.980;2023-07-29T00:20:49;64.05;54.96;74.60;;
67300;Laerm;57658;51.436;5.980;2023-07-29T00:21:00;63.63;54.24;75.41;;
67300;Laerm;57658;51.436;5.980;2023-07-29T00:21:10;65.05;53.27;75.46;;
67300;Laerm;57658;51.436;5.980;2023-07-29T00:21:20;81.18;63.25;87.61;;
67300;Laerm;57658;51.436;5.980;2023-07-29T00:21:31;82.07;76.91;87.98;;
67300;Laerm;57658;51.436;5.980;2023-07-29T00:21:41;76.86;56.60;83.85;;
67300;Laerm;57658;51.436;5.980;2023-07-29T00:21:51;55.81;37.60;72.94;;
67300;Laerm;57658;51.436;5.980;2023-07-29T00:22:01;37.18;33.78;45.21;;
67300;Laerm;57658;51.436;5.980;2023-07-29T00:22:12;33.90;31.92;43.00;;
67300;Laerm;57658;51.436;5.980;2023-07-29T00:22:23;32.24;31.02;33.93;;
67300;Laerm;57658;51.436;5.980;2023-07-29T00:22:33;33.01;31.40;35.19;;
67300;Laerm;57658;51.436;5.980;2023-07-29T00:22:43;32.59;31.00;34.94;;
67300;Laerm;57658;51.436;5.980;2023-07-29T00:22:53;33.11;31.05;36.17;;
67300;Laerm;57658;51.436;5.980;2023-07-29T00:23:04;32.13;30.70;33.39;;
67300;Laerm;57658;51.436;5.980;2023-07-29T00:23:15;32.41;31.05;33.73;;
67300;Laerm;57658;51.436;5.980;2023-07-29T00:23:25;32.23;31.05;33.45;;
67300;Laerm;57658;51.436;5.980;2023-07-29T00:23:35;32.11;30.93;34.11;;
67300;Laerm;57658;51.436;5.980;2023-07-29T00:23:45;31.91;30.98;33.19;;
67300;Laerm;57658;51.436;5.980;2023-07-29T00:23:56;31.92;30.57;33.05;;
67300;Laerm;57658;51.436;5.980;2023-07-29T00:24:07;32.03;30.93;33.06;;
67300;Laerm;57658;51.436;5.980;2023-07-29T00:24:17;31.84;30.53;32.86;;
67300;Laerm;57658;51.436;5.980;2023-07-29T00:24:28;32.11;30.88;33.58;;
67300;Laerm;57658;51.436;5.980;2023-07-29T00:24:39;33.11;30.70;47.94;;
67300;Laerm;57658;51.436;5.980;2023-07-29T00:24:52;31.77;30.82;32.71;;
67300;Laerm;57658;51.436;5.980;2023-07-29T00:25:05;72.16;30.72;78.86;;
67300;Laerm;57658;51.436;5.980;2023-07-29T00:25:15;66.82;52.32;77.33;;
67300;Laerm;57658;51.436;5.980;2023-07-29T00:25:26;64.80;54.34;75.08;;
67300;Laerm;57658;51.436;5.980;2023-07-29T00:25:36;63.10;53.18;72.29;;
67300;Laerm;57658;51.436;5.980;2023-07-29T00:25:46;62.86;53.87;72.23;;
67300;Laerm;57658;51.436;5.980;2023-07-29T00:25:57;81.62;57.82;89.05;;
67300;Laerm;57658;51.436;5.980;2023-07-29T00:26:07;81.11;77.21;84.99;;
67300;Laerm;57658;51.436;5.980;2023-07-29T00:26:17;80.38;67.62;92.07;;
67300;Laerm;57658;51.436;5.980;2023-07-29T00:26:27;63.99;51.94;71.73;;
67300;Laerm;57658;51.436;5.980;2023-07-29T00:26:39;49.74;44.94;53.94;;
67300;Laerm;57658;51.436;5.980;2023-07-29T00:26:49;45.17;41.35;51.20;;
67300;Laerm;57658;51.436;5.980;2023-07-29T00:26:59;42.12;38.88;44.69;;
67300;Laerm;57658;51.436;5.980;2023-07-29T00:27:09;40.20;37.08;44.30;;
67300;Laerm;57658;51.436;5.980;2023-07-29T00:27:20;40.75;37.44;44.11;;
67300;Laerm;57658;51.436;5.980;2023-07-29T00:27:31;39.33;36.47;42.62;;
67300;Laerm;57658;51.436;5.980;2023-07-29T00:27:41;38.05;34.37;41.35;;
67300;Laerm;57658;51.436;5.980;2023-07-29T00:27:52;35.81;32.46;40.72;;
67300;Laerm;57658;51.436;5.980;2023-07-29T00:28:02;33.90;31.56;36.53;;
67300;Laerm;57658;51.436;5.980;2023-07-29T00:28:12;34.99;31.39;39.69;;
67300;Laerm;57658;51.436;5.980;2023-07-29T00:28:23;33.97;31.29;37.74;;
67300;Laerm;57658;51.436;5.980;2023-07-29T00:28:33;32.94;31.59;34.46;;
67300;Laerm;57658;51.436;5.980;2023-07-29T00:28:43;32.34;31.30;33.78;;
67300;Laerm;57658;51.436;5.980;2023-07-29T00:28:54;32.28;30.87;33.60;;
67300;Laerm;57658;51.436;5.980;2023-07-29T00:29:05;31.93;30.77;33.14;;
67300;Laerm;57658;51.436;5.980;2023-07-29T00:29:15;32.20;30.97;33.62;;
67300;Laerm;57658;51.436;5.980;2023-07-29T00:29:25;32.24;31.14;33.91;;
67300;Laerm;57658;51.436;5.980;2023-07-29T00:29:35;71.41;31.39;78.47;;
67300;Laerm;57658;51.436;5.980;2023-07-29T00:29:46;70.24;54.42;77.12;;
67300;Laerm;57658;51.436;5.980;2023-07-29T00:29:57;64.37;54.27;75.18;;
67300;Laerm;57658;51.436;5.980;2023-07-29T00:30:07;65.04;54.76;76.08;;
67300;Laerm;57658;51.436;5.980;2023-07-29T00:30:17;63.07;53.02;72.19;;
67300;Laerm;57658;51.436;5.980;2023-07-29T00:30:28;68.29;54.45;79.90;;
67300;Laerm;57658;51.436;5.980;2023-07-29T00:30:38;78.16;74.27;81.58;;
67300;Laerm;57658;51.436;5.980;2023-07-29T00:30:48;79.11;74.91;85.10;;
67300;Laerm;57658;51.436;5.980;2023-07-29T00:30:58;71.09;50.79;80.41;;
67300;Laerm;57658;51.436;5.980;2023-07-29T00:31:09;49.98;40.15;65.45;;
67300;Laerm;57658;51.436;5.980;2023-07-29T00:31:19;40.78;37.40;46.56;;
67300;Laerm;57658;51.436;5.980;2023-07-29T00:31:29;37.04;34.41;39.65;;
67300;Laerm;57658;51.436;5.980;2023-07-29T00:31:40;35.28;33.63;38.39;;
67300;Laerm;57658;51.436;5.980;2023-07-29T00:31:50;36.77;33.56;40.20;;
67300;Laerm;57658;51.436;5.980;2023-07-29T00:32:00;37.11;34.93;39.86;;
67300;Laerm;57658;51.436;5.980;2023-07-29T00:32:10;37.12;34.49;39.97;;
67300;Laerm;57658;51.436;5.980;2023-07-29T00:32:21;33.95;31.97;36.60;;
67300;Laerm;57658;51.436;5.980;2023-07-29T00:32:31;33.58;31.99;36.64;;
67300;Laerm;57658;51.436;5.980;2023-07-29T00:32:41;33.44;32.18;35.48;;
67300;Laerm;57658;51.436;5.980;2023-07-29T00:32:52;32.81;31.52;34.19;;
67300;Laerm;57658;51.436;5.980;2023-07-29T00:33:02;32.44;31.21;33.88;;
67300;Laerm;57658;51.436;5.980;2023-07-29T00:33:13;32.51;31.20;33.61;;
67300;Laerm;57658;51.436;5.980;2023-07-29T00:33:23;32.31;31.08;33.77;;
67300;Laerm;57658;51.436;5.980;2023-07-29T00:33:33;32.53;31.53;34.00;;
67300;Laerm;57658;51.436;5.980;2023-07-29T00:33:43;32.36;31.02;33.61;;
67300;Laerm;57658;51.436;5.980;2023-07-29T00:33:54;32.63;31.51;33.90;;
67300;Laerm;57658;51.436;5.980;2023-07-29T00:34:04;32.55;31.30;34.01;;
67300;Laerm;57658;51.436;5.980;2023-07-29T00:34:14;32.33;31.02;33.51;;
67300;Laerm;57658;51.436;5.980;2023-07-29T00:34:29;32.44;31.00;33.81;;
67300;Laerm;57658;51.436;5.980;2023-07-29T00:34:40;32.52;31.14;33.85;;
67300;Laerm;57658;51.436;5.980;2023-07-29T00:34:51;32.68;31.02;35.75;;
67300;Laerm;57658;51.436;5.980;2023-07-29T00:35:01;32.86;31.21;36.78;;
67300;Laerm;57658;51.436;5.980;2023-07-29T00:35:12;32.60;31.30;36.70;;
67300;Laerm;57658;51.436;5.980;2023-07-29T00:35:22;32.70;31.18;35.66;;
67300;Laerm;57658;51.436;5.980;2023-07-29T00:35:32;32.57;31.23;35.87;;
67300;Laerm;57658;51.436;5.980;2023-07-29T00:35:43;32.40;30.94;34.13;;
67300;Laerm;57658;51.436;5.980;2023-07-29T00:35:53;32.42;31.15;34.09;;
67300;Laerm;57658;51.436;5.980;2023-07-29T00:36:03;32.22;30.98;33.63;;
67300;Laerm;57658;51.436;5.980;2023-07-29T00:36:14;32.23;31.21;33.53;;
67300;Laerm;57658;51.436;5.980;2023-07-29T00:36:24;32.38;31.22;33.60;;
67300;Laerm;57658;51.436;5.980;2023-07-29T00:36:34;32.20;30.83;33.40;;
67300;Laerm;57658;51.436;5.980;2023-07-29T00:36:45;32.00;30.94;33.03;;
67300;Laerm;57658;51.436;5.980;2023-07-29T00:36:55;32.10;30.93;33.20;;
67300;Laerm;57658;51.436;5.980;2023-07-29T00:37:06;32.06;31.10;32.98;;
67300;Laerm;57658;51.436;5.980;2023-07-29T00:37:16;31.70;30.63;32.95;;
67300;Laerm;57658;51.436;5.980;2023-07-29T00:37:27;31.80;30.72;32.83;;
67300;Laerm;57658;51.436;5.980;2023-07-29T00:37:37;32.05;30.70;33.65;;
67300;Laerm;57658;51.436;5.980;2023-07-29T00:37:48;32.10;30.89;33.13;;
67300;Laerm;57658;51.436;5.980;2023-07-29T00:37:58;32.25;30.91;33.21;;
67300;Laerm;57658;51.436;5.980;2023-07-29T00:38:08;31.91;30.90;33.11;;
67300;Laerm;57658;51.436;5.980;2023-07-29T00:38:18;31.70;30.46;32.88;;
67300;Laerm;57658;51.436;5.980;2023-07-29T00:38:29;31.78;30.75;32.95;;
67300;Laerm;57658;51.436;5.980;2023-07-29T00:38:42;31.83;30.53;33.08;;
67300;Laerm;57658;51.436;5.980;2023-07-29T00:38:52;71.27;31.04;78.75;;
67300;Laerm;57658;51.436;5.980;2023-07-29T00:39:04;68.46;53.96;77.12;;
67300;Laerm;57658;51.436;5.980;2023-07-29T00:39:14;64.46;53.90;74.02;;
67300;Laerm;57658;51.436;5.980;2023-07-29T00:39:24;64.12;54.62;74.16;;
67300;Laerm;57658;51.436;5.980;2023-07-29T00:39:35;64.09;54.13;72.44;;
67300;Laerm;57658;51.436;5.980;2023-07-29T00:39:45;75.71;56.47;81.88;;
67300;Laerm;57658;51.436;5.980;2023-07-29T00:39:56;78.95;75.53;83.49;;
67300;Laerm;57658;51.436;5.980;2023-07-29T00:40:11;76.43;59.98;82.62;;
67300;Laerm;57658;51.436;5.980;2023-07-29T00:40:23;57.97;39.39;74.51;;
67300;Laerm;57658;51.436;5.980;2023-07-29T00:40:35;39.19;35.80;44.67;;
67300;Laerm;57658;51.436;5.980;2023-07-29T00:40:45;37.24;34.86;41.10;;
67300;Laerm;57658;51.436;5.980;2023-07-29T00:40:56;38.84;36.09;42.37;;
67300;Laerm;57658;51.436;5.980;2023-07-29T00:41:07;39.57;35.50;45.13;;
67300;Laerm;57658;51.436;5.980;2023-07-29T00:41:18;35.60;33.21;38.86;;
67300;Laerm;57658;51.436;5.980;2023-07-29T00:41:28;35.60;32.76;38.93;;
67300;Laerm;57658;51.436;5.980;2023-07-29T00:41:39;33.79;31.93;36.23;;
67300;Laerm;57658;51.436;5.980;2023-07-29T00:41:49;33.30;31.66;35.76;;
67300;Laerm;57658;51.436;5.980;2023-07-29T00:41:59;32.58;31.32;34.14;;
67300;Laerm;57658;51.436;5.980;2023-07-29T00:42:10;32.15;31.09;33.27;;
67300;Laerm;57658;51.436;5.980;2023-07-29T00:42:20;31.99;30.81;33.80;;
67300;Laerm;57658;51.436;5.980;2023-07-29T00:42:30;32.32;30.63;34.54;;
67300;Laerm;57658;51.436;5.980;2023-07-29T00:42:41;32.24;31.22;33.77;;
67300;Laerm;57658;51.436;5.980;2023-07-29T00:42:52;31.87;30.81;32.89;;
67300;Laerm;57658;51.436;5.980;2023-07-29T00:43:02;31.74;30.58;33.93;;
67300;Laerm;57658;51.436;5.980;2023-07-29T00:43:13;32.25;30.64;33.90;;
67300;Laerm;57658;51.436;5.980;2023-07-29T00:43:23;32.84;31.32;35.07;;
67300;Laerm;57658;51.436;5.980;2023-07-29T00:43:33;31.90;30.70;33.34;;
67300;Laerm;57658;51.436;5.980;2023-07-29T00:43:43;31.91;30.51;33.28;;
67300;Laerm;57658;51.436;5.980;2023-07-29T00:43:54;32.63;30.92;34.16;;
67300;Laerm;57658;51.436;5.980;2023-07-29T00:44:04;32.24;30.80;34.54;;
67300;Laerm;57658;51.436;5.980;2023-07-29T00:44:14;32.68;31.48;33.78;;
67300;Laerm;57658;51.436;5.980;2023-07-29T00:44:25;33.62;32.14;35.52;;
67300;Laerm;57658;51.436;5.980;2023-07-29T00:44:35;43.79;34.57;48.81;;
67300;Laerm;57658;51.436;5.980;2023-07-29T00:44:45;56.05;43.55;62.26;;
67300;Laerm;57658;51.436;5.980;2023-07-29T00:44:56;41.72;33.66;48.62;;
67300;Laerm;57658;51.436;5.980;2023-07-29T00:45:06;35.14;31.83;40.77;;
67300;Laerm;57658;51.436;5.980;2023-07-29T00:45:18;31.57;29.92;33.12;;
67300;Laerm;57658;51.436;5.980;2023-07-29T00:45:28;31.18;29.97;32.21;;
67300;Laerm;57658;51.436;5.980;2023-07-29T00:45:39;30.90;29.66;32.33;;
67300;Laerm;57658;51.436;5.980;2023-07-29T00:45:53;30.99;29.91;32.12;;
67300;Laerm;57658;51.436;5.980;2023-07-29T00:46:03;30.97;29.87;32.39;;
67300;Laerm;57658;51.436;5.980;2023-07-29T00:46:14;31.05;29.93;32.21;;
67300;Laerm;57658;51.436;5.980;2023-07-29T00:46:25;31.05;29.82;31.95;;
67300;Laerm;57658;51.436;5.980;2023-07-29T00:46:37;31.05;29.89;32.18;;
67300;Laerm;57658;51.436;5.980;2023-07-29T00:46:49;31.15;29.99;32.33;;
67300;Laerm;57658;51.436;5.980;2023-07-29T00:47:00;30.80;29.68;31.80;;
67300;Laerm;57658;51.436;5.980;2023-07-29T00:47:12;30.86;29.94;32.13;;
67300;Laerm;57658;51.436;5.980;2023-07-29T00:47:25;30.96;30.04;32.10;;
67300;Laerm;57658;51.436;5.980;2023-07-29T00:47:35;30.88;29.84;31.92;;
67300;Laerm;57658;51.436;5.980;2023-07-29T00:47:46;31.03;29.72;32.17;;
67300;Laerm;57658;51.436;5.980;2023-07-29T00:47:57;30.86;29.91;31.74;;
67300;Laerm;57658;51.436;5.980;2023-07-29T00:48:07;31.17;29.89;32.23;;
67300;Laerm;57658;51.436;5.980;2023-07-29T00:48:17;31.30;30.31;32.71;;
67300;Laerm;57658;51.436;5.980;2023-07-29T00:48:28;31.02;29.74;32.36;;
67300;Laerm;57658;51.436;5.980;2023-07-29T00:48:39;31.05;30.09;31.86;;
67300;Laerm;57658;51.436;5.980;2023-07-29T00:48:49;31.34;30.12;32.49;;
67300;Laerm;57658;51.436;5.980;2023-07-29T00:48:59;31.34;30.09;32.48;;
67300;Laerm;57658;51.436;5.980;2023-07-29T00:49:10;31.53;30.44;32.67;;
67300;Laerm;57658;51.436;5.980;2023-07-29T00:49:20;31.47;30.36;32.73;;
67300;Laerm;57658;51.436;5.980;2023-07-29T00:49:31;31.46;30.21;32.74;;
67300;Laerm;57658;51.436;5.980;2023-07-29T00:49:42;31.41;30.05;32.78;;
67300;Laerm;57658;51.436;5.980;2023-07-29T00:49:52;31.66;30.25;33.10;;
67300;Laerm;57658;51.436;5.980;2023-07-29T00:50:03;32.18;30.79;34.04;;
67300;Laerm;57658;51.436;5.980;2023-07-29T00:50:14;33.88;31.49;37.09;;
67300;Laerm;57658;51.436;5.980;2023-07-29T00:50:24;31.76;30.43;33.47;;
67300;Laerm;57658;51.436;5.980;2023-07-29T00:50:37;31.17;30.09;32.69;;
67300;Laerm;57658;51.436;5.980;2023-07-29T00:50:48;31.16;30.12;32.07;;
67300;Laerm;57658;51.436;5.980;2023-07-29T00:50:58;31.18;30.21;32.22;;
67300;Laerm;57658;51.436;5.980;2023-07-29T00:51:08;31.08;30.10;32.69;;
67300;Laerm;57658;51.436;5.980;2023-07-29T00:51:19;31.18;29.99;32.29;;
67300;Laerm;57658;51.436;5.980;2023-07-29T00:51:29;31.97;30.47;33.57;;
67300;Laerm;57658;51.436;5.980;2023-07-29T00:51:39;31.35;30.38;32.45;;
67300;Laerm;57658;51.436;5.980;2023-07-29T00:51:50;31.33;30.30;32.38;;
67300;Laerm;57658;51.436;5.980;2023-07-29T00:52:00;31.27;30.15;32.23;;
67300;Laerm;57658;51.436;5.980;2023-07-29T00:52:11;31.38;30.19;32.61;;
67300;Laerm;57658;51.436;5.980;2023-07-29T00:52:22;31.33;30.34;32.22;;
67300;Laerm;57658;51.436;5.980;2023-07-29T00:52:32;31.50;30.20;33.16;;
67300;Laerm;57658;51.436;5.980;2023-07-29T00:52:43;31.67;30.43;32.79;;
67300;Laerm;57658;51.436;5.980;2023-07-29T00:52:54;31.72;30.40;33.43;;
67300;Laerm;57658;51.436;5.980;2023-07-29T00:53:04;31.53;30.21;32.68;;
67300;Laerm;57658;51.436;5.980;2023-07-29T00:53:15;31.89;30.60;33.15;;
67300;Laerm;57658;51.436;5.980;2023-07-29T00:53:25;31.55;30.48;32.62;;
67300;Laerm;57658;51.436;5.980;2023-07-29T00:53:36;31.41;30.17;32.84;;
67300;Laerm;57658;51.436;5.980;2023-07-29T00:53:46;31.51;30.26;32.92;;
67300;Laerm;57658;51.436;5.980;2023-07-29T00:53:57;31.39;30.16;32.57;;
67300;Laerm;57658;51.436;5.980;2023-07-29T00:54:07;31.34;30.35;32.36;;
67300;Laerm;57658;51.436;5.980;2023-07-29T00:54:17;32.12;30.69;33.99;;
67300;Laerm;57658;51.436;5.980;2023-07-29T00:54:27;32.93;30.95;34.15;;
67300;Laerm;57658;51.436;5.980;2023-07-29T00:54:38;32.18;31.18;33.59;;
67300;Laerm;57658;51.436;5.980;2023-07-29T00:54:49;32.73;31.08;43.33;;
67300;Laerm;57658;51.436;5.980;2023-07-29T00:54:59;39.53;31.84;44.11;;
67300;Laerm;57658;51.436;5.980;2023-07-29T00:55:09;50.64;42.69;57.35;;
67300;Laerm;57658;51.436;5.980;2023-07-29T00:55:20;59.69;51.34;63.32;;
67300;Laerm;57658;51.436;5.980;2023-07-29T00:55:30;45.46;37.75;51.02;;
67300;Laerm;57658;51.436;5.980;2023-07-29T00:55:41;41.02;35.23;44.77;;
67300;Laerm;57658;51.436;5.980;2023-07-29T00:55:51;35.80;32.73;38.28;;
67300;Laerm;57658;51.436;5.980;2023-07-29T00:56:02;32.87;30.83;35.12;;
67300;Laerm;57658;51.436;5.980;2023-07-29T00:56:12;31.89;30.83;33.06;;
67300;Laerm;57658;51.436;5.980;2023-07-29T00:56:23;31.82;30.51;32.91;;
67300;Laerm;57658;51.436;5.980;2023-07-29T00:56:33;31.59;30.48;32.63;;
67300;Laerm;57658;51.436;5.980;2023-07-29T00:56:43;31.65;30.51;33.01;;
67300;Laerm;57658;51.436;5.980;2023-07-29T00:56:54;31.71;30.56;32.86;;
67300;Laerm;57658;51.436;5.980;2023-07-29T00:57:04;31.84;30.52;35.55;;
67300;Laerm;57658;51.436;5.980;2023-07-29T00:57:15;31.59;30.19;32.83;;
67300;Laerm;57658;51.436;5.980;2023-07-29T00:57:26;31.50;30.28;32.89;;
67300;Laerm;57658;51.436;5.980;2023-07-29T00:57:38;31.60;30.22;32.67;;
67300;Laerm;57658;51.436;5.980;2023-07-29T00:57:50;31.35;30.13;32.42;;
67300;Laerm;57658;51.436;5.980;2023-07-29T00:58:03;31.44;30.24;33.03;;
67300;Laerm;57658;51.436;5.980;2023-07-29T00:58:14;31.39;30.19;32.83;;
67300;Laerm;57658;51.436;5.980;2023-07-29T00:58:24;31.46;30.25;32.79;;
67300;Laerm;57658;51.436;5.980;2023-07-29T00:58:34;31.39;30.27;32.36;;
67300;Laerm;57658;51.436;5.980;2023-07-29T00:58:45;31.30;30.07;32.25;;
67300;Laerm;57658;51.436;5.980;2023-07-29T00:58:56;31.30;30.24;32.45;;
67300;Laerm;57658;51.436;5.980;2023-07-29T00:59:10;31.13;30.02;32.61;;